Brangus — WDB4516 — position and weather

sailwx.info

Track history (hours):
 
Tides and Currents Weather Stations Pressure Air Temp Water Temp Dewpoint Dewpoint Depression Visibility Wind Speed Wind Dir Waves Ship Positions

Brangus

Owner: Great Lakes Dredge & Dock Company, Oak Brook, IL. More information available from US FCC via Universal Licensing System and Coast Guard Vessel Documentation Center.

Last reported at 2016-Aug-30 21:33 UTC. Time now 2016-Sep-01 05:39 UTC.
Position N 39°49' W 074°04'.

; draft 3 m.

MMSI: 366899270.

Date/timePositionNaut miles runAvg speedWind from/ knotsBaromVisibWave heightAir tempDewpointWater temp
2016-Aug-30 21:33N 39°49' W 074°04'4 4.2
2016-Aug-30 20:33N 39°45' W 074°07'0 0.0
2016-Aug-30 19:33N 39°45' W 074°07'1 0.8
2016-Aug-30 18:33N 39°46' W 074°07'1 0.8
2016-Aug-30 17:33N 39°45' W 074°07'1 0.8
2016-Aug-30 16:33N 39°46' W 074°07'0 0.2
2016-Aug-30 15:33N 39°46' W 074°07'0 0.0
2016-Aug-30 14:32N 39°46' W 074°07'0 0.2
2016-Aug-30 13:33N 39°46' W 074°07'0 0.0
2016-Aug-30 12:33N 39°46' W 074°07'1 0.8
2016-Aug-30 11:33N 39°45' W 074°07'0 0.0
2016-Aug-30 10:33N 39°45' W 074°07'1 0.8
2016-Aug-30 09:33N 39°46' W 074°07'0 0.0
2016-Aug-30 08:33N 39°46' W 074°07'0 0.0
2016-Aug-30 07:33N 39°46' W 074°07'0 0.0
2016-Aug-30 06:33N 39°46' W 074°07'0 0.0
2016-Aug-30 05:33N 39°46' W 074°07'0 0.0
2016-Aug-30 04:33N 39°46' W 074°07'1 0.8
2016-Aug-30 03:33N 39°45' W 074°07'0 0.0
2016-Aug-30 02:33N 39°45' W 074°07'4 3.7
2016-Aug-30 01:33N 39°42' W 074°05'4 3.6
2016-Aug-30 00:33N 39°45' W 074°05'1 1.3
2016-Aug-29 23:34N 39°45' W 074°07'0 0.0
2016-Aug-29 22:34N 39°45' W 074°07'0 0.0
2016-Aug-29 21:34N 39°45' W 074°07'0 0.0
2016-Aug-29 20:33N 39°45' W 074°07'0 0.0
2016-Aug-29 19:34N 39°45' W 074°07'1 0.8
2016-Aug-29 18:34N 39°46' W 074°07'0 0.0
2016-Aug-29 17:34N 39°46' W 074°07'0 0.0
2016-Aug-29 16:33N 39°46' W 074°07'0 0.0
2016-Aug-29 15:33N 39°46' W 074°07'0 0.1
2016-Aug-29 14:33N 39°46' W 074°07'0 0.0
2016-Aug-29 13:34N 39°46' W 074°07'0 0.0
2016-Aug-29 12:32N 39°46' W 074°07'0 0.0
2016-Aug-29 11:33N 39°46' W 074°07'0 0.2
2016-Aug-29 10:33N 39°46' W 074°07'0 0.3
2016-Aug-29 09:33N 39°46' W 074°07'0 0.0
2016-Aug-29 08:33N 39°46' W 074°07'0 0.0
2016-Aug-29 07:30N 39°46' W 074°07'0 0.0
2016-Aug-29 06:33N 39°46' W 074°07'0 0.0
2016-Aug-29 05:34N 39°46' W 074°07'0 0.0
2016-Aug-29 04:33N 39°46' W 074°07'0 0.0
2016-Aug-29 03:33N 39°46' W 074°07'0 0.0
2016-Aug-29 02:33N 39°46' W 074°07'1 0.8
2016-Aug-29 01:33N 39°45' W 074°07'0 0.0
2016-Aug-29 00:33N 39°45' W 074°07'1 0.7
2016-Aug-28 23:33N 39°46' W 074°07'1 0.7
2016-Aug-28 22:33N 39°45' W 074°07'0 0.0
2016-Aug-28 21:33N 39°45' W 074°07'1 1.1
2016-Aug-28 20:33N 39°46' W 074°07'0 0.2
2016-Aug-28 19:32N 39°46' W 074°07'1 1.0
2016-Aug-28 18:33N 39°45' W 074°07'0 0.0
2016-Aug-28 17:33N 39°45' W 074°07'1 0.9
2016-Aug-28 16:33N 39°46' W 074°07'0 0.0
2016-Aug-28 15:33N 39°46' W 074°07'0 0.3
2016-Aug-28 14:33N 39°46' W 074°07'1 0.7
2016-Aug-28 13:33N 39°45' W 074°07'1 0.6
2016-Aug-28 12:33N 39°46' W 074°07'0 0.1
2016-Aug-28 11:33N 39°46' W 074°07'1 0.8
2016-Aug-28 10:33N 39°45' W 074°07'0 0.0
2016-Aug-28 09:33N 39°45' W 074°07'0 0.0
2016-Aug-28 08:33N 39°45' W 074°07'0 0.0
2016-Aug-28 07:32N 39°45' W 074°07'0 0.0
2016-Aug-28 06:33N 39°45' W 074°07'0 0.0
2016-Aug-28 05:32N 39°45' W 074°07'0 0.0
2016-Aug-28 04:33N 39°45' W 074°07'0 0.0
2016-Aug-28 03:33N 39°45' W 074°07'0 0.0
2016-Aug-28 02:33N 39°45' W 074°07'0 0.0
2016-Aug-28 01:33N 39°45' W 074°07'0 0.0
2016-Aug-28 00:33N 39°45' W 074°07'0 0.0
2016-Aug-27 23:33N 39°45' W 074°07'0 0.0
2016-Aug-27 22:33N 39°45' W 074°07'1 0.7
2016-Aug-27 21:33N 39°46' W 074°07'1 0.7
2016-Aug-27 20:33N 39°45' W 074°07'0 0.0
2016-Aug-27 19:33N 39°45' W 074°07'1 0.7
2016-Aug-27 18:33N 39°46' W 074°07'0 0.1
2016-Aug-27 17:33N 39°46' W 074°07'0 0.0
2016-Aug-27 16:33N 39°46' W 074°07'1 0.8
2016-Aug-27 15:33N 39°45' W 074°07'0 0.0
2016-Aug-27 14:33N 39°45' W 074°07'1 0.8
2016-Aug-27 13:33N 39°46' W 074°07'0 0.3
2016-Aug-27 12:33N 39°46' W 074°07'0 0.5
2016-Aug-27 11:33N 39°45' W 074°07'1 0.6
2016-Aug-27 10:33N 39°46' W 074°07'2 1.8
2016-Aug-27 09:26N 39°47' W 074°05'4 3.3
2016-Aug-27 08:04N 39°51' W 074°04'2 3.5
2016-Aug-27 07:33N 39°53' W 074°04'13 3.3
2016-Aug-27 03:33N 40°06' W 074°01'25 3.6
2016-Aug-26 20:33N 40°31' W 074°02'4 3.6
2016-Aug-26 19:33N 40°35' W 074°02'3 2.9
2016-Aug-26 18:33N 40°37' W 074°04'3 2.8
2016-Aug-26 17:26N 40°39' W 074°07'4 0.5
2016-Aug-26 10:29N 40°38' W 074°12'2 2.6
2016-Aug-26 09:33N 40°38' W 074°09'0 0.0
2016-Aug-26 08:33N 40°38' W 074°09'0 0.0
2016-Aug-26 07:33N 40°38' W 074°09'0 0.0
2016-Aug-26 06:33N 40°38' W 074°09'0 0.0
2016-Aug-26 04:33N 40°38' W 074°09'0 0.0
2016-Aug-26 03:33N 40°38' W 074°09'0 0.0
2016-Aug-26 02:33N 40°38' W 074°09'0 0.0
2016-Aug-26 01:33N 40°38' W 074°09'0 0.1
2016-Aug-26 00:33N 40°38' W 074°09'4 3.8
2016-Aug-25 23:33N 40°39' W 074°04'  
2016-Aug-23 16:30N 40°09' W 073°60'14 4.5
2016-Aug-23 13:30N 39°56' W 074°03'4 4.3
2016-Aug-23 12:33N 39°52' W 074°04'4 4.0
2016-Aug-23 11:33N 39°48' W 074°04'3 2.8
2016-Aug-23 10:33N 39°46' W 074°06'1 0.8
2016-Aug-23 09:33N 39°45' W 074°07'0 0.0
2016-Aug-23 08:33N 39°45' W 074°07'0 0.0
2016-Aug-23 07:33N 39°45' W 074°07'0 0.0
2016-Aug-23 06:33N 39°45' W 074°07'0 0.0
2016-Aug-23 05:33N 39°45' W 074°07'0 0.0
2016-Aug-23 04:33N 39°45' W 074°07'0 0.0
2016-Aug-23 03:33N 39°45' W 074°07'0 0.0
2016-Aug-23 02:33N 39°45' W 074°07'0 0.0
2016-Aug-23 01:33N 39°45' W 074°07'0 0.0
2016-Aug-23 00:33N 39°45' W 074°07'0 0.0
2016-Aug-22 23:33N 39°45' W 074°07'0 0.0
2016-Aug-22 22:33N 39°45' W 074°07'0 0.0
2016-Aug-22 21:33N 39°45' W 074°07'0 0.0
2016-Aug-22 20:33N 39°45' W 074°07'0 0.0
2016-Aug-22 19:33N 39°45' W 074°07'1 0.6
2016-Aug-22 18:33N 39°46' W 074°07'0 0.0
2016-Aug-22 17:33N 39°46' W 074°07'1 0.7
2016-Aug-22 16:33N 39°45' W 074°07'1 0.7
2016-Aug-22 15:33N 39°46' W 074°07'0 0.0
2016-Aug-22 14:33N 39°46' W 074°07'0 0.0
2016-Aug-22 13:33N 39°46' W 074°07'0 0.0
2016-Aug-22 12:33N 39°46' W 074°07'1 0.7
2016-Aug-22 11:33N 39°45' W 074°07'0 0.0
2016-Aug-22 10:33N 39°45' W 074°07'0 0.0
2016-Aug-22 09:33N 39°45' W 074°07'0 0.0
2016-Aug-22 08:33N 39°45' W 074°07'0 0.0
2016-Aug-22 07:33N 39°45' W 074°07'0 0.0
2016-Aug-22 06:33N 39°45' W 074°07'0 0.0
2016-Aug-22 05:33N 39°45' W 074°07'0 0.0
2016-Aug-22 04:33N 39°45' W 074°07'0 0.0
2016-Aug-22 03:33N 39°45' W 074°07'0 0.0
2016-Aug-22 02:33N 39°45' W 074°07'0 0.0
2016-Aug-22 01:33N 39°45' W 074°07'0 0.0
2016-Aug-22 00:33N 39°45' W 074°07'0 0.0
2016-Aug-21 23:33N 39°45' W 074°07'0 0.0
2016-Aug-21 22:33N 39°45' W 074°07'0 0.0
2016-Aug-21 21:33N 39°45' W 074°07'0 0.0
2016-Aug-21 20:33N 39°45' W 074°07'0 0.0
2016-Aug-21 19:33N 39°45' W 074°07'0 0.0
2016-Aug-21 18:33N 39°45' W 074°07'0 0.0
2016-Aug-21 17:33N 39°45' W 074°07'0 0.0
2016-Aug-21 16:33N 39°45' W 074°07'0 0.0
2016-Aug-21 15:33N 39°45' W 074°07'0 0.0
2016-Aug-21 14:33N 39°45' W 074°07'0 0.0
2016-Aug-21 13:33N 39°45' W 074°07'2 1.6
2016-Aug-21 12:33N 39°45' W 074°05'1 1.1
2016-Aug-21 11:33N 39°44' W 074°06'7 3.5
2016-Aug-21 09:33N 39°51' W 074°04'40 3.6
2016-Aug-20 22:33N 40°30' W 074°01'4 3.5
2016-Aug-20 21:33N 40°34' W 074°02'  
Track history (hours):
 
Tides and Currents Weather Stations Pressure Air Temp Water Temp Dewpoint Dewpoint Depression Visibility Wind Speed Wind Dir Waves Ship Positions

Brangus

Owner: Great Lakes Dredge & Dock Company, Oak Brook, IL. More information available from US FCC via Universal Licensing System and Coast Guard Vessel Documentation Center.

Last reported at 2016-Aug-30 21:33 UTC. Time now 2016-Sep-01 05:39 UTC.
Position N 39°49' W 074°04'.

; draft 3 m.

MMSI: 366899270.

Date/timePositionNaut miles runAvg speedWind from/ knotsBaromVisibWave heightAir tempDewpointWater temp
2016-Aug-30 21:33N 39°49' W 074°04'4 4.2
2016-Aug-30 20:33N 39°45' W 074°07'0 0.0
2016-Aug-30 19:33N 39°45' W 074°07'1 0.8
2016-Aug-30 18:33N 39°46' W 074°07'1 0.8
2016-Aug-30 17:33N 39°45' W 074°07'1 0.8
2016-Aug-30 16:33N 39°46' W 074°07'0 0.2
2016-Aug-30 15:33N 39°46' W 074°07'0 0.0
2016-Aug-30 14:32N 39°46' W 074°07'0 0.2
2016-Aug-30 13:33N 39°46' W 074°07'0 0.0
2016-Aug-30 12:33N 39°46' W 074°07'1 0.8
2016-Aug-30 11:33N 39°45' W 074°07'0 0.0
2016-Aug-30 10:33N 39°45' W 074°07'1 0.8
2016-Aug-30 09:33N 39°46' W 074°07'0 0.0
2016-Aug-30 08:33N 39°46' W 074°07'0 0.0
2016-Aug-30 07:33N 39°46' W 074°07'0 0.0
2016-Aug-30 06:33N 39°46' W 074°07'0 0.0
2016-Aug-30 05:33N 39°46' W 074°07'0 0.0
2016-Aug-30 04:33N 39°46' W 074°07'1 0.8
2016-Aug-30 03:33N 39°45' W 074°07'0 0.0
2016-Aug-30 02:33N 39°45' W 074°07'4 3.7
2016-Aug-30 01:33N 39°42' W 074°05'4 3.6
2016-Aug-30 00:33N 39°45' W 074°05'1 1.3
2016-Aug-29 23:34N 39°45' W 074°07'0 0.0
2016-Aug-29 22:34N 39°45' W 074°07'0 0.0
2016-Aug-29 21:34N 39°45' W 074°07'0 0.0
2016-Aug-29 20:33N 39°45' W 074°07'0 0.0
2016-Aug-29 19:34N 39°45' W 074°07'1 0.8
2016-Aug-29 18:34N 39°46' W 074°07'0 0.0
2016-Aug-29 17:34N 39°46' W 074°07'0 0.0
2016-Aug-29 16:33N 39°46' W 074°07'0 0.0
2016-Aug-29 15:33N 39°46' W 074°07'0 0.1
2016-Aug-29 14:33N 39°46' W 074°07'0 0.0
2016-Aug-29 13:34N 39°46' W 074°07'0 0.0
2016-Aug-29 12:32N 39°46' W 074°07'0 0.0
2016-Aug-29 11:33N 39°46' W 074°07'0 0.2
2016-Aug-29 10:33N 39°46' W 074°07'0 0.3
2016-Aug-29 09:33N 39°46' W 074°07'0 0.0
2016-Aug-29 08:33N 39°46' W 074°07'0 0.0
2016-Aug-29 07:30N 39°46' W 074°07'0 0.0
2016-Aug-29 06:33N 39°46' W 074°07'0 0.0
2016-Aug-29 05:34N 39°46' W 074°07'0 0.0
2016-Aug-29 04:33N 39°46' W 074°07'0 0.0
2016-Aug-29 03:33N 39°46' W 074°07'0 0.0
2016-Aug-29 02:33N 39°46' W 074°07'1 0.8
2016-Aug-29 01:33N 39°45' W 074°07'0 0.0
2016-Aug-29 00:33N 39°45' W 074°07'1 0.7
2016-Aug-28 23:33N 39°46' W 074°07'1 0.7
2016-Aug-28 22:33N 39°45' W 074°07'0 0.0
2016-Aug-28 21:33N 39°45' W 074°07'1 1.1
2016-Aug-28 20:33N 39°46' W 074°07'0 0.2
2016-Aug-28 19:32N 39°46' W 074°07'1 1.0
2016-Aug-28 18:33N 39°45' W 074°07'0 0.0
2016-Aug-28 17:33N 39°45' W 074°07'1 0.9
2016-Aug-28 16:33N 39°46' W 074°07'0 0.0
2016-Aug-28 15:33N 39°46' W 074°07'0 0.3
2016-Aug-28 14:33N 39°46' W 074°07'1 0.7
2016-Aug-28 13:33N 39°45' W 074°07'1 0.6
2016-Aug-28 12:33N 39°46' W 074°07'0 0.1
2016-Aug-28 11:33N 39°46' W 074°07'1 0.8
2016-Aug-28 10:33N 39°45' W 074°07'0 0.0
2016-Aug-28 09:33N 39°45' W 074°07'0 0.0
2016-Aug-28 08:33N 39°45' W 074°07'0 0.0
2016-Aug-28 07:32N 39°45' W 074°07'0 0.0
2016-Aug-28 06:33N 39°45' W 074°07'0 0.0
2016-Aug-28 05:32N 39°45' W 074°07'0 0.0
2016-Aug-28 04:33N 39°45' W 074°07'0 0.0
2016-Aug-28 03:33N 39°45' W 074°07'0 0.0
2016-Aug-28 02:33N 39°45' W 074°07'0 0.0
2016-Aug-28 01:33N 39°45' W 074°07'0 0.0
2016-Aug-28 00:33N 39°45' W 074°07'0 0.0
2016-Aug-27 23:33N 39°45' W 074°07'0 0.0
2016-Aug-27 22:33N 39°45' W 074°07'1 0.7
2016-Aug-27 21:33N 39°46' W 074°07'1 0.7
2016-Aug-27 20:33N 39°45' W 074°07'0 0.0
2016-Aug-27 19:33N 39°45' W 074°07'1 0.7
2016-Aug-27 18:33N 39°46' W 074°07'0 0.1
2016-Aug-27 17:33N 39°46' W 074°07'0 0.0
2016-Aug-27 16:33N 39°46' W 074°07'1 0.8
2016-Aug-27 15:33N 39°45' W 074°07'0 0.0
2016-Aug-27 14:33N 39°45' W 074°07'1 0.8
2016-Aug-27 13:33N 39°46' W 074°07'0 0.3
2016-Aug-27 12:33N 39°46' W 074°07'0 0.5
2016-Aug-27 11:33N 39°45' W 074°07'1 0.6
2016-Aug-27 10:33N 39°46' W 074°07'2 1.8
2016-Aug-27 09:26N 39°47' W 074°05'4 3.3
2016-Aug-27 08:04N 39°51' W 074°04'2 3.5
2016-Aug-27 07:33N 39°53' W 074°04'13 3.3
2016-Aug-27 03:33N 40°06' W 074°01'25 3.6
2016-Aug-26 20:33N 40°31' W 074°02'4 3.6
2016-Aug-26 19:33N 40°35' W 074°02'3 2.9
2016-Aug-26 18:33N 40°37' W 074°04'3 2.8
2016-Aug-26 17:26N 40°39' W 074°07'4 0.5
2016-Aug-26 10:29N 40°38' W 074°12'2 2.6
2016-Aug-26 09:33N 40°38' W 074°09'0 0.0
2016-Aug-26 08:33N 40°38' W 074°09'0 0.0
2016-Aug-26 07:33N 40°38' W 074°09'0 0.0
2016-Aug-26 06:33N 40°38' W 074°09'0 0.0
2016-Aug-26 04:33N 40°38' W 074°09'0 0.0
2016-Aug-26 03:33N 40°38' W 074°09'0 0.0
2016-Aug-26 02:33N 40°38' W 074°09'0 0.0
2016-Aug-26 01:33N 40°38' W 074°09'0 0.1
2016-Aug-26 00:33N 40°38' W 074°09'4 3.8
2016-Aug-25 23:33N 40°39' W 074°04'  
2016-Aug-23 16:30N 40°09' W 073°60'14 4.5
2016-Aug-23 13:30N 39°56' W 074°03'4 4.3
2016-Aug-23 12:33N 39°52' W 074°04'4 4.0
2016-Aug-23 11:33N 39°48' W 074°04'3 2.8
2016-Aug-23 10:33N 39°46' W 074°06'1 0.8
2016-Aug-23 09:33N 39°45' W 074°07'0 0.0
2016-Aug-23 08:33N 39°45' W 074°07'0 0.0
2016-Aug-23 07:33N 39°45' W 074°07'0 0.0
2016-Aug-23 06:33N 39°45' W 074°07'0 0.0
2016-Aug-23 05:33N 39°45' W 074°07'0 0.0
2016-Aug-23 04:33N 39°45' W 074°07'0 0.0
2016-Aug-23 03:33N 39°45' W 074°07'0 0.0
2016-Aug-23 02:33N 39°45' W 074°07'0 0.0
2016-Aug-23 01:33N 39°45' W 074°07'0 0.0
2016-Aug-23 00:33N 39°45' W 074°07'0 0.0
2016-Aug-22 23:33N 39°45' W 074°07'0 0.0
2016-Aug-22 22:33N 39°45' W 074°07'0 0.0
2016-Aug-22 21:33N 39°45' W 074°07'0 0.0
2016-Aug-22 20:33N 39°45' W 074°07'0 0.0
2016-Aug-22 19:33N 39°45' W 074°07'1 0.6
2016-Aug-22 18:33N 39°46' W 074°07'0 0.0
2016-Aug-22 17:33N 39°46' W 074°07'1 0.7
2016-Aug-22 16:33N 39°45' W 074°07'1 0.7
2016-Aug-22 15:33N 39°46' W 074°07'0 0.0
2016-Aug-22 14:33N 39°46' W 074°07'0 0.0
2016-Aug-22 13:33N 39°46' W 074°07'0 0.0
2016-Aug-22 12:33N 39°46' W 074°07'1 0.7
2016-Aug-22 11:33N 39°45' W 074°07'0 0.0
2016-Aug-22 10:33N 39°45' W 074°07'0 0.0
2016-Aug-22 09:33N 39°45' W 074°07'0 0.0
2016-Aug-22 08:33N 39°45' W 074°07'0 0.0
2016-Aug-22 07:33N 39°45' W 074°07'0 0.0
2016-Aug-22 06:33N 39°45' W 074°07'0 0.0
2016-Aug-22 05:33N 39°45' W 074°07'0 0.0
2016-Aug-22 04:33N 39°45' W 074°07'0 0.0
2016-Aug-22 03:33N 39°45' W 074°07'0 0.0
2016-Aug-22 02:33N 39°45' W 074°07'0 0.0
2016-Aug-22 01:33N 39°45' W 074°07'0 0.0
2016-Aug-22 00:33N 39°45' W 074°07'0 0.0
2016-Aug-21 23:33N 39°45' W 074°07'0 0.0
2016-Aug-21 22:33N 39°45' W 074°07'0 0.0
2016-Aug-21 21:33N 39°45' W 074°07'0 0.0
2016-Aug-21 20:33N 39°45' W 074°07'0 0.0
2016-Aug-21 19:33N 39°45' W 074°07'0 0.0
2016-Aug-21 18:33N 39°45' W 074°07'0 0.0
2016-Aug-21 17:33N 39°45' W 074°07'0 0.0
2016-Aug-21 16:33N 39°45' W 074°07'0 0.0
2016-Aug-21 15:33N 39°45' W 074°07'0 0.0
2016-Aug-21 14:33N 39°45' W 074°07'0 0.0
2016-Aug-21 13:33N 39°45' W 074°07'2 1.6
2016-Aug-21 12:33N 39°45' W 074°05'1 1.1
2016-Aug-21 11:33N 39°44' W 074°06'7 3.5
2016-Aug-21 09:33N 39°51' W 074°04'40 3.6
2016-Aug-20 22:33N 40°30' W 074°01'4 3.5
2016-Aug-20 21:33N 40°34' W 074°02'  

Dump ship's entire track history